createdAt,value
2023-04-15T00:00:56.782Z,3.67
2023-04-15T00:03:23.731Z,4.87
2023-04-15T00:05:51.869Z,5.57
2023-04-15T00:08:18.598Z,4.83
2023-04-15T00:10:45.298Z,6.07
2023-04-15T00:13:12.120Z,4.60
2023-04-15T00:15:38.832Z,5.90
2023-04-15T00:18:05.468Z,5.37
2023-04-15T00:20:32.150Z,4.80
2023-04-15T00:23:00.180Z,4.77
2023-04-15T00:25:26.851Z,4.30
2023-04-15T00:27:53.580Z,5.00
2023-04-15T00:30:20.354Z,4.57
2023-04-15T00:32:47.125Z,4.00
2023-04-15T00:35:15.528Z,5.97
2023-04-15T00:37:43.223Z,7.17
2023-04-15T00:40:13.758Z,4.57
2023-04-15T00:42:40.742Z,5.20
2023-04-15T00:45:08.412Z,5.50
2023-04-15T00:47:36.001Z,3.90
2023-04-15T00:50:02.715Z,3.77
2023-04-15T00:52:29.379Z,4.50
2023-04-15T00:54:56.109Z,4.70
2023-04-15T00:57:24.274Z,5.30
2023-04-15T00:59:52.068Z,6.03
2023-04-15T01:02:19.046Z,4.70
2023-04-15T01:04:45.750Z,6.20
2023-04-15T01:07:12.390Z,5.17
2023-04-15T01:09:39.315Z,6.60
2023-04-15T01:12:07.032Z,6.20
2023-04-15T01:14:35.072Z,6.20
2023-04-15T01:17:01.885Z,5.70
2023-04-15T01:19:28.799Z,5.17
2023-04-15T01:21:56.296Z,5.60
2023-04-15T01:24:24.218Z,6.70
2023-04-15T01:26:52.207Z,6.40
2023-04-15T01:29:18.907Z,5.67
2023-04-15T01:31:50.802Z,6.77
2023-04-15T01:34:17.613Z,5.17
2023-04-15T01:36:44.338Z,5.23
2023-04-15T01:39:11.079Z,7.33
2023-04-15T01:41:37.763Z,5.93
2023-04-15T01:44:06.921Z,6.27
2023-04-15T01:46:34.071Z,6.17
2023-04-15T01:49:02.363Z,6.90
2023-04-15T01:51:29.463Z,6.10
2023-04-15T01:53:56.166Z,5.80
2023-04-15T01:56:22.937Z,6.40
2023-04-15T01:58:49.622Z,6.33
2023-04-15T02:01:17.776Z,5.90
2023-04-15T02:03:45.733Z,7.33
2023-04-15T02:06:12.504Z,5.17
2023-04-15T02:08:39.203Z,6.60
2023-04-15T02:11:05.864Z,7.27
2023-04-15T02:13:32.537Z,7.10
2023-04-15T02:15:59.340Z,6.33
2023-04-15T02:18:27.432Z,7.17
2023-04-15T02:20:54.171Z,6.70
2023-04-15T02:23:20.860Z,6.00
2023-04-15T02:25:53.234Z,10.20
2023-04-15T02:28:21.068Z,7.63
2023-04-15T02:30:48.527Z,7.33
2023-04-15T02:33:15.190Z,7.67
2023-04-15T02:35:43.355Z,8.33
2023-04-15T02:38:10.053Z,7.70
2023-04-15T02:40:36.786Z,7.67
2023-04-15T02:43:05.211Z,7.87
2023-04-15T02:45:31.908Z,8.63
2023-04-15T02:47:58.588Z,9.30
2023-04-15T02:50:25.363Z,8.73
2023-04-15T02:52:59.434Z,10.03
2023-04-15T02:55:26.111Z,10.10
2023-04-15T02:57:52.822Z,8.83
2023-04-15T03:00:19.482Z,8.17
2023-04-15T03:02:47.068Z,6.20
2023-04-15T03:05:16.477Z,7.03
2023-04-15T03:07:43.199Z,7.00
2023-04-15T03:10:11.353Z,7.20
2023-04-15T03:12:38.107Z,7.93
2023-04-15T03:15:06.026Z,5.60
2023-04-15T03:17:32.765Z,6.40
2023-04-15T03:19:59.460Z,5.90
2023-04-15T03:22:26.181Z,7.23
2023-04-15T03:24:52.866Z,4.90
2023-04-15T03:27:20.848Z,6.33
2023-04-15T03:29:47.524Z,6.53
2023-04-15T03:32:14.231Z,6.47
2023-04-15T03:34:41.288Z,5.40
2023-04-15T03:37:08.102Z,7.03
2023-04-15T03:39:34.950Z,5.53
2023-04-15T03:42:04.142Z,4.93
2023-04-15T03:44:32.157Z,7.63
2023-04-15T03:46:58.976Z,8.77
2023-04-15T03:49:25.667Z,6.57
2023-04-15T03:51:52.371Z,7.20
2023-04-15T03:54:19.010Z,6.10
2023-04-15T03:56:45.744Z,4.90
2023-04-15T03:59:12.486Z,7.33
2023-04-15T04:01:40.552Z,5.53
2023-04-15T04:04:07.323Z,6.90
2023-04-15T04:06:34.142Z,5.50
2023-04-15T04:09:01.029Z,5.17
2023-04-15T04:11:27.968Z,4.93
2023-04-15T04:13:54.621Z,3.40
2023-04-15T04:16:21.485Z,4.47
2023-04-15T04:18:49.682Z,5.17
2023-04-15T04:21:16.500Z,4.93
2023-04-15T04:23:43.233Z,4.50
2023-04-15T04:26:09.880Z,4.47
2023-04-15T04:28:36.527Z,5.40
2023-04-15T04:31:03.228Z,4.80
2023-04-15T04:33:30.161Z,4.63
2023-04-15T04:35:58.191Z,5.00
2023-04-15T04:38:24.884Z,4.70
2023-04-15T04:40:51.624Z,3.07
2023-04-15T04:43:18.353Z,4.00
2023-04-15T04:45:45.074Z,4.50
2023-04-15T04:48:11.704Z,3.67
2023-04-15T04:50:38.375Z,3.23
2023-04-15T04:53:06.397Z,5.80
2023-04-15T04:55:33.190Z,3.00
2023-04-15T04:57:59.926Z,4.33
2023-04-15T05:00:26.617Z,3.50
2023-04-15T05:02:54.797Z,3.87
2023-04-15T05:05:21.736Z,3.60
2023-04-15T05:07:48.432Z,3.73
2023-04-15T05:10:16.644Z,3.50
2023-04-15T05:12:43.440Z,3.70
2023-04-15T05:15:10.782Z,3.27
2023-04-15T05:17:37.637Z,3.13
2023-04-15T05:20:05.036Z,4.80
2023-04-15T05:22:31.813Z,4.73
2023-04-15T05:24:58.486Z,5.23
2023-04-15T05:27:26.547Z,4.67
2023-04-15T05:29:53.215Z,4.90
2023-04-15T05:32:19.969Z,3.50
2023-04-15T05:34:46.706Z,4.03
2023-04-15T05:37:13.907Z,4.63
2023-04-15T05:43:10.912Z,3.50
2023-04-15T05:45:37.614Z,4.77
2023-04-15T05:48:04.501Z,3.90
2023-04-15T05:50:31.275Z,4.70
2023-04-15T05:52:58.030Z,5.63
2023-04-15T05:55:24.711Z,4.33
2023-04-15T05:57:51.379Z,5.00
2023-04-15T06:00:20.901Z,5.10
2023-04-15T06:02:47.875Z,4.50
2023-04-15T06:05:14.732Z,4.73
2023-04-15T06:07:41.386Z,5.57
2023-04-15T06:10:09.036Z,6.93
2023-04-15T06:12:35.766Z,4.20
2023-04-15T06:15:02.516Z,4.20
2023-04-15T06:17:30.523Z,6.70
2023-04-15T06:19:57.210Z,6.57
2023-04-15T06:22:24.009Z,6.53
2023-04-15T06:24:50.849Z,7.00
2023-04-15T06:27:17.674Z,4.93
2023-04-15T06:29:44.393Z,6.77
2023-04-15T06:32:11.201Z,5.90
2023-04-15T06:34:39.287Z,6.90
2023-04-15T06:37:06.371Z,5.80
2023-04-15T06:39:33.317Z,9.00
2023-04-15T06:41:59.955Z,7.43
2023-04-15T06:44:26.758Z,8.53
2023-04-15T06:46:53.427Z,7.13
2023-04-15T06:49:20.138Z,6.07
2023-04-15T06:51:48.222Z,9.07
2023-04-15T06:54:14.881Z,5.60
2023-04-15T06:56:41.558Z,5.80
2023-04-15T06:59:08.203Z,6.60
2023-04-15T07:01:34.892Z,8.23
2023-04-15T07:04:02.722Z,7.03
2023-04-15T07:06:35.239Z,7.40
2023-04-15T07:09:04.012Z,9.03
2023-04-15T07:11:31.283Z,11.33
2023-04-15T07:14:28.110Z,9.37
2023-04-15T07:16:57.745Z,12.30
2023-04-15T07:19:24.862Z,9.00
2023-04-15T07:21:51.659Z,11.30
2023-04-15T07:26:47.545Z,13.70
2023-04-15T07:29:14.276Z,11.47
2023-04-15T07:31:44.183Z,13.67
2023-04-15T07:34:13.985Z,16.07
2023-04-15T07:36:42.837Z,16.53
2023-04-15T07:39:12.268Z,16.90
2023-04-15T07:41:39.114Z,18.30
2023-04-15T07:44:07.237Z,21.90
2023-04-15T07:46:34.030Z,20.77
2023-04-15T07:49:00.987Z,23.83
2023-04-15T07:51:27.990Z,22.17
2023-04-15T07:53:56.877Z,25.53
2023-04-15T07:56:25.636Z,28.07
2023-04-15T07:58:53.047Z,22.70
2023-04-15T08:01:21.063Z,35.23
2023-04-15T08:03:47.858Z,31.73
2023-04-15T08:06:16.195Z,31.47
2023-04-15T08:08:42.894Z,29.40
2023-04-15T08:11:11.861Z,30.63
2023-04-15T08:13:38.774Z,35.47
2023-04-15T08:16:18.333Z,35.70
2023-04-15T08:18:46.479Z,31.87
2023-04-15T08:21:13.189Z,38.33
2023-04-15T08:23:40.052Z,38.27
2023-04-15T08:26:06.904Z,35.80
2023-04-15T08:28:33.585Z,33.97
2023-04-15T08:31:00.268Z,39.87
2023-04-15T08:33:27.045Z,37.67
2023-04-15T08:35:55.075Z,43.33
2023-04-15T08:38:21.785Z,44.57
2023-04-15T08:40:48.491Z,52.17
2023-04-15T08:43:21.576Z,38.43
2023-04-15T08:45:49.825Z,42.30
2023-04-15T08:48:17.390Z,46.33
2023-04-15T08:50:44.374Z,44.93
2023-04-15T08:53:12.940Z,42.30
2023-04-15T08:55:43.415Z,44.90
2023-04-15T08:58:10.896Z,44.80
2023-04-15T09:00:38.049Z,43.30
2023-04-15T09:03:05.268Z,42.43
2023-04-15T09:05:35.240Z,34.90
2023-04-15T09:08:02.198Z,39.83
2023-04-15T09:10:30.456Z,37.73
2023-04-15T09:12:57.297Z,35.50
2023-04-15T09:15:25.500Z,35.30
2023-04-15T09:17:53.911Z,45.87
2023-04-15T09:20:39.626Z,39.80
2023-04-15T09:23:12.408Z,31.40
2023-04-15T09:25:40.920Z,31.80
2023-04-15T09:28:07.796Z,38.43
2023-04-15T09:30:34.666Z,43.60
2023-04-15T09:33:03.457Z,37.17
2023-04-15T09:35:44.404Z,32.20
2023-04-15T09:38:53.724Z,33.93
2023-04-15T09:41:33.696Z,31.63
2023-04-15T09:44:00.638Z,35.57
2023-04-15T09:46:41.185Z,35.47
2023-04-15T09:49:08.625Z,36.23
2023-04-15T09:51:35.623Z,32.47
2023-04-15T09:54:02.696Z,32.70
2023-04-15T09:56:35.204Z,34.43
2023-04-15T09:59:01.921Z,28.30
2023-04-15T10:01:29.064Z,31.73
2023-04-15T10:03:57.329Z,30.53
2023-04-15T10:06:25.563Z,33.47
2023-04-15T10:08:52.439Z,29.60
2023-04-15T10:11:20.811Z,29.53
2023-04-15T10:13:49.870Z,31.47
2023-04-15T10:16:19.271Z,24.43
2023-04-15T10:18:48.252Z,30.80
2023-04-15T10:21:15.372Z,28.50
2023-04-15T10:23:42.901Z,32.37
2023-04-15T10:26:10.774Z,35.90
2023-04-15T10:28:37.515Z,31.80
2023-04-15T10:31:06.728Z,31.40
2023-04-15T10:33:34.958Z,26.10
2023-04-15T10:36:02.445Z,29.80
2023-04-15T10:38:35.930Z,31.23
2023-04-15T10:41:18.052Z,32.57
2023-04-15T10:43:48.979Z,28.87
2023-04-15T10:46:19.732Z,32.53
2023-04-15T10:48:50.389Z,32.07
2023-04-15T10:51:17.189Z,27.93
2023-04-15T10:53:43.904Z,34.10
2023-04-15T10:56:10.603Z,33.87
2023-04-15T10:58:42.198Z,29.20
2023-04-15T11:01:08.985Z,28.13
2023-04-15T11:03:39.865Z,31.33
2023-04-15T11:06:07.348Z,29.73
2023-04-15T11:08:53.912Z,36.40
2023-04-15T11:11:20.618Z,32.07
2023-04-15T11:13:53.498Z,31.90
2023-04-15T11:16:20.322Z,30.00
2023-04-15T11:18:56.095Z,29.50
2023-04-15T11:21:25.320Z,32.60
2023-04-15T11:23:52.093Z,30.63
2023-04-15T11:26:18.833Z,27.50
2023-04-15T11:28:46.197Z,30.27
2023-04-15T11:31:14.372Z,26.03
2023-04-15T11:33:53.490Z,30.13
2023-04-15T11:36:23.708Z,38.33
2023-04-15T11:38:50.603Z,31.70
2023-04-15T11:41:20.774Z,30.43
2023-04-15T11:43:47.620Z,31.70
2023-04-15T11:46:15.821Z,32.70
2023-04-15T11:48:44.629Z,31.97
2023-04-15T11:51:12.308Z,35.53
2023-04-15T11:53:51.814Z,31.20
2023-04-15T11:59:45.237Z,28.90
2023-04-15T12:02:16.516Z,30.83
2023-04-15T12:05:01.060Z,28.50
2023-04-15T12:07:29.971Z,27.00
2023-04-15T12:10:42.045Z,23.73
2023-04-15T12:13:07.065Z,30.87
2023-04-15T12:15:37.520Z,31.03
2023-04-15T12:18:05.446Z,27.90
2023-04-15T12:20:33.072Z,28.83
2023-04-15T12:23:06.130Z,31.30
2023-04-15T12:25:40.294Z,28.67
2023-04-15T12:28:14.391Z,28.50
2023-04-15T12:30:49.513Z,28.60
2023-04-15T12:33:18.537Z,30.43
2023-04-15T12:35:47.530Z,28.67
2023-04-15T12:38:32.692Z,29.10
2023-04-15T12:42:01.245Z,27.00
2023-04-15T12:45:07.784Z,26.90
2023-04-15T12:57:32.738Z,22.13
2023-04-15T12:59:59.439Z,17.53
2023-04-15T13:02:26.329Z,21.87
2023-04-15T13:04:53.260Z,19.83
2023-04-15T13:07:20.112Z,19.23
2023-04-15T13:09:46.949Z,19.40
2023-04-15T13:12:13.832Z,19.27
2023-04-15T13:14:42.219Z,21.60
2023-04-15T13:17:08.937Z,17.33
2023-04-15T13:19:35.860Z,21.30
2023-04-15T13:22:02.596Z,20.80
2023-04-15T13:24:29.278Z,19.80
2023-04-15T13:26:55.969Z,19.33
2023-04-15T13:29:22.647Z,18.47
2023-04-15T13:31:50.832Z,18.40
2023-04-15T13:34:19.970Z,17.20
2023-04-15T13:36:47.246Z,15.73
2023-04-15T13:39:14.063Z,19.80
2023-04-15T13:41:40.761Z,23.30
2023-04-15T13:44:07.757Z,20.60
2023-04-15T13:46:34.661Z,19.83
2023-04-15T13:49:02.808Z,16.57
2023-04-15T13:51:32.734Z,19.20
2023-04-15T13:54:02.342Z,19.57
2023-04-15T13:56:29.461Z,20.93
2023-04-15T13:58:59.119Z,23.90
2023-04-15T14:01:26.062Z,18.63
2023-04-15T14:03:53.024Z,19.23
2023-04-15T14:06:21.337Z,16.30
2023-04-15T14:08:48.135Z,22.30
2023-04-15T14:11:17.499Z,23.20
2023-04-15T14:13:44.464Z,28.30
2023-04-15T14:16:11.184Z,20.10
2023-04-15T14:18:37.955Z,26.37
2023-04-15T14:21:05.982Z,23.40
2023-04-15T14:23:34.017Z,20.87
2023-04-15T14:26:00.763Z,22.17
2023-04-15T14:28:27.546Z,22.87
2023-04-15T14:30:54.272Z,29.70
2023-04-15T14:33:21.048Z,20.77
2023-04-15T14:35:47.810Z,22.40
2023-04-15T14:38:14.495Z,20.20
2023-04-15T14:40:42.605Z,23.40
2023-04-15T14:43:09.612Z,23.63
2023-04-15T14:45:38.735Z,31.83
2023-04-15T14:48:07.403Z,30.77
2023-04-15T14:50:34.178Z,26.53
2023-04-15T14:53:00.914Z,23.10
2023-04-15T14:55:27.700Z,27.73
2023-04-15T14:57:55.775Z,23.73
2023-04-15T15:00:22.590Z,28.60
2023-04-15T15:02:49.449Z,26.47
2023-04-15T15:05:16.501Z,24.10
2023-04-15T15:07:43.370Z,28.83
2023-04-15T15:10:10.387Z,22.53
2023-04-15T15:12:37.082Z,25.27
2023-04-15T15:15:15.523Z,28.20
2023-04-15T15:17:52.283Z,28.33
2023-04-15T15:20:18.985Z,39.03
2023-04-15T15:22:48.336Z,21.70
2023-04-15T15:25:15.066Z,30.23
2023-04-15T15:27:41.912Z,25.93
2023-04-15T15:30:11.124Z,23.53
2023-04-15T15:32:39.464Z,22.33
2023-04-15T15:35:06.906Z,21.60
2023-04-15T15:37:33.892Z,24.93
2023-04-15T15:40:00.626Z,27.53
2023-04-15T15:42:28.348Z,27.73
2023-04-15T15:44:55.154Z,30.80
2023-04-15T15:47:23.394Z,27.87
2023-04-15T15:49:50.169Z,25.40
2023-04-15T15:52:19.509Z,23.10
2023-04-15T15:54:46.217Z,25.43
2023-04-15T15:57:12.888Z,26.67
2023-04-15T15:59:39.623Z,28.30
2023-04-15T16:02:07.228Z,33.33
2023-04-15T16:04:35.447Z,32.83
2023-04-15T16:07:02.227Z,26.70
2023-04-15T16:09:28.943Z,18.90
2023-04-15T16:11:55.705Z,21.30
2023-04-15T16:14:22.455Z,22.97
2023-04-15T16:16:49.200Z,23.23
2023-04-15T16:19:16.450Z,28.93
2023-04-15T16:21:44.592Z,28.40
2023-04-15T16:24:13.142Z,29.53
2023-04-15T16:26:40.649Z,23.33
2023-04-15T16:29:07.619Z,22.30
2023-04-15T16:31:34.694Z,25.93
2023-04-15T16:34:02.213Z,23.10
2023-04-15T16:36:28.949Z,21.83
2023-04-15T16:38:56.972Z,22.40
2023-04-15T16:41:23.796Z,23.50
2023-04-15T16:43:52.712Z,22.50
2023-04-15T16:46:19.575Z,25.40
2023-04-15T16:48:46.350Z,19.13
2023-04-15T16:51:13.257Z,23.00
2023-04-15T16:53:40.130Z,24.60
2023-04-15T16:56:08.460Z,24.17
2023-04-15T16:58:37.812Z,18.67
2023-04-15T17:01:04.880Z,21.37
2023-04-15T17:03:31.688Z,20.40
2023-04-15T17:08:43.921Z,17.00
2023-04-15T17:11:12.160Z,18.57
2023-04-15T17:13:39.076Z,27.40
2023-04-15T17:16:06.114Z,20.13
2023-04-15T17:18:32.837Z,20.80
2023-04-15T17:20:59.516Z,15.23
2023-04-15T17:23:26.300Z,15.70
2023-04-15T17:25:53.090Z,23.60
2023-04-15T17:28:21.140Z,15.10
2023-04-15T17:30:48.024Z,20.17
2023-04-15T17:33:57.669Z,18.63
2023-04-15T17:36:01.747Z,19.20
2023-04-15T17:38:28.456Z,21.10
2023-04-15T17:40:55.456Z,20.00
2023-04-15T17:43:23.631Z,18.10
2023-04-15T17:45:51.047Z,19.20
2023-04-15T17:48:20.087Z,22.47
2023-04-15T17:50:46.824Z,22.03
2023-04-15T17:53:14.210Z,21.40
2023-04-15T17:55:58.848Z,23.40
2023-04-15T17:59:03.115Z,35.60
2023-04-15T18:02:11.644Z,22.37
2023-04-15T18:04:44.845Z,17.00
2023-04-15T18:07:11.667Z,18.27
2023-04-15T18:09:42.685Z,20.27
2023-04-15T18:12:30.512Z,19.93
2023-04-15T18:14:58.665Z,22.00
2023-04-15T18:17:25.547Z,19.20
2023-04-15T18:19:55.041Z,21.03
2023-04-15T18:22:22.090Z,22.20
2023-04-15T18:24:48.858Z,20.53
2023-04-15T18:27:15.570Z,19.07
2023-04-15T18:29:42.388Z,23.60
2023-04-15T18:32:10.556Z,19.50
2023-04-15T18:34:37.399Z,20.50
2023-04-15T18:37:04.531Z,20.70
2023-04-15T18:39:31.676Z,21.20
2023-04-15T18:41:58.776Z,17.90
2023-04-15T18:44:25.887Z,20.03
2023-04-15T18:46:53.062Z,26.90
2023-04-15T18:49:21.494Z,19.23
2023-04-15T18:51:48.595Z,24.23
2023-04-15T18:54:16.111Z,23.30
2023-04-15T18:56:43.270Z,22.07
2023-04-15T18:59:29.624Z,25.80
2023-04-15T19:01:58.363Z,22.30
2023-04-15T19:04:26.775Z,18.93
2023-04-15T19:06:53.475Z,21.83
2023-04-15T19:09:20.156Z,23.27
2023-04-15T19:11:46.852Z,26.20
2023-04-15T19:14:13.575Z,24.10
2023-04-15T19:16:40.752Z,22.57
2023-04-15T19:19:08.168Z,20.60
2023-04-15T19:21:36.322Z,14.33
2023-04-15T19:24:03.072Z,17.97
2023-04-15T19:26:29.754Z,20.17
2023-04-15T19:28:56.465Z,17.90
2023-04-15T19:31:23.408Z,18.43
2023-04-15T19:33:50.114Z,17.80
2023-04-15T19:36:16.805Z,19.43
2023-04-15T19:38:44.912Z,17.73
2023-04-15T19:41:11.590Z,19.60
2023-04-15T19:43:38.684Z,18.30
2023-04-15T19:46:07.253Z,14.53
2023-04-15T19:48:34.301Z,20.70
2023-04-15T19:51:01.272Z,15.30
2023-04-15T19:53:29.117Z,17.93
2023-04-15T19:55:58.088Z,16.90
2023-04-15T19:58:24.850Z,15.80
2023-04-15T20:00:51.631Z,27.13
2023-04-15T20:03:18.425Z,16.67
2023-04-15T20:05:45.216Z,18.07
2023-04-15T20:08:12.018Z,17.20
2023-04-15T20:10:38.719Z,18.90
2023-04-15T20:13:06.752Z,18.13
2023-04-15T20:15:33.481Z,21.30
2023-04-15T20:18:00.382Z,17.93
2023-04-15T20:20:27.157Z,17.17
2023-04-15T20:22:53.852Z,16.93
2023-04-15T20:25:22.930Z,19.13
2023-04-15T20:27:49.617Z,19.03
2023-04-15T20:30:17.827Z,21.13
2023-04-15T20:32:44.646Z,16.73
2023-04-15T20:35:11.454Z,20.73
2023-04-15T20:37:38.342Z,18.70
2023-04-15T20:40:06.215Z,18.17
2023-04-15T20:42:33.787Z,17.57
2023-04-15T20:45:00.747Z,17.17
2023-04-15T20:47:29.307Z,23.03
2023-04-15T20:49:56.268Z,24.67
2023-04-15T20:52:22.997Z,20.63
2023-04-15T20:54:50.110Z,21.80
2023-04-15T20:57:16.920Z,19.13
2023-04-15T20:59:43.655Z,21.20
2023-04-15T21:02:10.630Z,19.20
2023-04-15T21:04:38.757Z,22.10
2023-04-15T21:07:05.564Z,18.90
2023-04-15T21:09:32.268Z,20.93
2023-04-15T21:12:01.539Z,19.13
2023-04-15T21:14:29.599Z,22.53
2023-04-15T21:16:57.073Z,18.63
2023-04-15T21:19:23.909Z,22.63
2023-04-15T21:21:52.485Z,20.03
2023-04-15T21:24:19.608Z,21.63
2023-04-15T21:26:46.739Z,23.03
2023-04-15T21:29:13.986Z,20.73
2023-04-15T21:31:41.500Z,20.90
2023-04-15T21:34:08.953Z,21.23
2023-04-15T21:36:36.937Z,21.00
2023-04-15T21:39:05.771Z,20.03
2023-04-15T21:41:33.171Z,24.10
2023-04-15T21:44:00.344Z,26.43
2023-04-15T21:46:32.912Z,21.47
2023-04-15T21:49:02.266Z,21.23
2023-04-15T21:51:29.211Z,24.30
2023-04-15T21:53:56.369Z,23.83
2023-04-15T21:56:25.891Z,22.20
2023-04-15T21:58:56.497Z,20.03
2023-04-15T22:01:23.673Z,21.23
2023-04-15T22:03:51.354Z,20.10
2023-04-15T22:06:18.593Z,21.37
2023-04-15T22:09:10.673Z,23.00
2023-04-15T22:11:34.395Z,25.60
2023-04-15T22:14:01.502Z,16.77
2023-04-15T22:16:28.642Z,19.87
2023-04-15T22:18:56.036Z,20.70
2023-04-15T22:21:23.457Z,21.17
2023-04-15T22:23:51.050Z,20.73
2023-04-15T22:26:18.221Z,26.47
2023-04-15T22:28:46.766Z,23.03
2023-04-15T22:31:13.850Z,28.63
2023-04-15T22:33:41.018Z,25.10
2023-04-15T22:36:08.127Z,24.00
2023-04-15T22:38:35.083Z,20.60
2023-04-15T22:41:02.018Z,20.67
2023-04-15T22:43:28.701Z,17.13
2023-04-15T22:45:57.039Z,23.83
2023-04-15T22:48:23.868Z,19.73
2023-04-15T22:50:50.592Z,25.10
2023-04-15T22:53:17.467Z,20.30
2023-04-15T22:55:45.202Z,22.40
2023-04-15T22:58:15.438Z,24.30
2023-04-15T23:00:42.137Z,19.93
2023-04-15T23:03:10.413Z,22.03
2023-04-15T23:05:37.361Z,20.53
2023-04-15T23:08:04.083Z,18.57
2023-04-15T23:10:30.900Z,24.10
2023-04-15T23:12:57.644Z,23.50
2023-04-15T23:15:24.656Z,21.93
2023-04-15T23:17:51.539Z,20.17
2023-04-15T23:20:19.711Z,22.50
2023-04-15T23:22:46.377Z,17.87
2023-04-15T23:25:13.064Z,22.50
2023-04-15T23:27:39.735Z,22.80
2023-04-15T23:30:07.742Z,24.27
2023-04-15T23:32:34.729Z,20.17
2023-04-15T23:35:01.510Z,25.20
2023-04-15T23:37:30.576Z,23.57
2023-04-15T23:40:00.177Z,20.23
2023-04-15T23:42:26.887Z,24.70
2023-04-15T23:44:53.570Z,24.60
2023-04-15T23:47:20.754Z,24.50
2023-04-15T23:49:47.595Z,24.40
2023-04-15T23:52:14.356Z,24.20
2023-04-15T23:54:42.614Z,25.33
2023-04-15T23:57:09.287Z,23.90
2023-04-15T23:59:35.989Z,22.90
